sensor_id;sensor_type;location;lat;lon;timestamp;P1;durP1;ratioP1;P2;durP2;ratioP2
42094;SDS011;27753;55.724;37.612;2022-11-15T00:01:53;4.28;;;1.60;;
42094;SDS011;27753;55.724;37.612;2022-11-15T00:04:19;2.05;;;1.40;;
42094;SDS011;27753;55.724;37.612;2022-11-15T00:06:45;1.92;;;1.23;;
42094;SDS011;27753;55.724;37.612;2022-11-15T00:09:10;3.53;;;1.73;;
42094;SDS011;27753;55.724;37.612;2022-11-15T00:11:36;3.60;;;2.00;;
42094;SDS011;27753;55.724;37.612;2022-11-15T00:14:02;2.47;;;1.65;;
42094;SDS011;27753;55.724;37.612;2022-11-15T00:16:28;3.97;;;1.67;;
42094;SDS011;27753;55.724;37.612;2022-11-15T00:18:54;2.80;;;1.35;;
42094;SDS011;27753;55.724;37.612;2022-11-15T00:21:20;3.55;;;1.40;;
42094;SDS011;27753;55.724;37.612;2022-11-15T00:23:45;1.50;;;1.33;;
42094;SDS011;27753;55.724;37.612;2022-11-15T00:26:12;4.65;;;1.05;;
42094;SDS011;27753;55.724;37.612;2022-11-15T00:28:40;2.08;;;1.35;;
42094;SDS011;27753;55.724;37.612;2022-11-15T00:31:07;1.58;;;1.23;;
42094;SDS011;27753;55.724;37.612;2022-11-15T00:33:36;3.72;;;1.70;;
42094;SDS011;27753;55.724;37.612;2022-11-15T00:36:05;2.47;;;1.45;;
42094;SDS011;27753;55.724;37.612;2022-11-15T00:38:34;1.63;;;1.13;;
42094;SDS011;27753;55.724;37.612;2022-11-15T00:41:02;2.30;;;1.30;;
42094;SDS011;27753;55.724;37.612;2022-11-15T00:43:29;1.10;;;0.93;;
42094;SDS011;27753;55.724;37.612;2022-11-15T00:45:55;5.32;;;1.20;;
42094;SDS011;27753;55.724;37.612;2022-11-15T00:48:21;5.95;;;2.60;;
42094;SDS011;27753;55.724;37.612;2022-11-15T00:50:48;1.75;;;1.48;;
42094;SDS011;27753;55.724;37.612;2022-11-15T00:53:14;1.92;;;1.40;;
42094;SDS011;27753;55.724;37.612;2022-11-15T00:55:40;4.68;;;1.55;;
42094;SDS011;27753;55.724;37.612;2022-11-15T00:58:05;4.00;;;1.35;;
42094;SDS011;27753;55.724;37.612;2022-11-15T01:00:31;3.05;;;2.28;;
42094;SDS011;27753;55.724;37.612;2022-11-15T01:02:57;4.45;;;1.77;;
42094;SDS011;27753;55.724;37.612;2022-11-15T01:05:24;4.28;;;2.13;;
42094;SDS011;27753;55.724;37.612;2022-11-15T01:07:54;7.03;;;2.30;;
42094;SDS011;27753;55.724;37.612;2022-11-15T01:10:21;3.75;;;1.60;;
42094;SDS011;27753;55.724;37.612;2022-11-15T01:12:47;2.35;;;1.58;;
42094;SDS011;27753;55.724;37.612;2022-11-15T01:15:14;3.25;;;1.58;;
42094;SDS011;27753;55.724;37.612;2022-11-15T01:17:40;3.88;;;1.45;;
42094;SDS011;27753;55.724;37.612;2022-11-15T01:20:06;2.92;;;1.42;;
42094;SDS011;27753;55.724;37.612;2022-11-15T01:22:32;4.00;;;2.22;;
42094;SDS011;27753;55.724;37.612;2022-11-15T01:24:58;3.33;;;1.40;;
42094;SDS011;27753;55.724;37.612;2022-11-15T01:27:24;6.25;;;2.50;;
42094;SDS011;27753;55.724;37.612;2022-11-15T01:29:50;6.68;;;2.00;;
42094;SDS011;27753;55.724;37.612;2022-11-15T01:32:15;2.35;;;1.55;;
42094;SDS011;27753;55.724;37.612;2022-11-15T01:34:41;5.00;;;1.55;;
42094;SDS011;27753;55.724;37.612;2022-11-15T01:37:07;4.07;;;1.98;;
42094;SDS011;27753;55.724;37.612;2022-11-15T01:39:33;2.70;;;1.45;;
42094;SDS011;27753;55.724;37.612;2022-11-15T01:41:59;5.20;;;1.25;;
42094;SDS011;27753;55.724;37.612;2022-11-15T01:47:03;3.60;;;1.20;;
42094;SDS011;27753;55.724;37.612;2022-11-15T01:49:39;4.45;;;1.55;;
42094;SDS011;27753;55.724;37.612;2022-11-15T01:52:13;4.68;;;1.88;;
42094;SDS011;27753;55.724;37.612;2022-11-15T01:54:44;1.95;;;1.20;;
42094;SDS011;27753;55.724;37.612;2022-11-15T01:57:11;3.07;;;1.97;;
42094;SDS011;27753;55.724;37.612;2022-11-15T01:59:39;2.15;;;1.30;;
42094;SDS011;27753;55.724;37.612;2022-11-15T02:02:07;3.85;;;1.65;;
42094;SDS011;27753;55.724;37.612;2022-11-15T02:04:40;6.78;;;1.83;;
42094;SDS011;27753;55.724;37.612;2022-11-15T02:07:08;4.50;;;1.55;;
42094;SDS011;27753;55.724;37.612;2022-11-15T02:09:37;4.15;;;1.65;;
42094;SDS011;27753;55.724;37.612;2022-11-15T02:12:04;5.95;;;1.45;;
42094;SDS011;27753;55.724;37.612;2022-11-15T02:14:33;2.60;;;1.55;;
42094;SDS011;27753;55.724;37.612;2022-11-15T02:20:32;2.33;;;1.10;;
42094;SDS011;27753;55.724;37.612;2022-11-15T02:31:00;7.25;;;2.15;;
42094;SDS011;27753;55.724;37.612;2022-11-15T02:36:23;3.85;;;1.40;;
42094;SDS011;27753;55.724;37.612;2022-11-15T02:41:54;3.28;;;1.25;;
42094;SDS011;27753;55.724;37.612;2022-11-15T02:44:54;2.78;;;0.98;;
42094;SDS011;27753;55.724;37.612;2022-11-15T02:47:22;6.38;;;1.95;;
42094;SDS011;27753;55.724;37.612;2022-11-15T02:49:54;2.10;;;1.05;;
42094;SDS011;27753;55.724;37.612;2022-11-15T02:52:24;5.90;;;1.85;;
42094;SDS011;27753;55.724;37.612;2022-11-15T02:58:06;5.05;;;1.23;;
42094;SDS011;27753;55.724;37.612;2022-11-15T03:00:47;3.33;;;1.42;;
42094;SDS011;27753;55.724;37.612;2022-11-15T03:09:40;3.97;;;1.20;;
42094;SDS011;27753;55.724;37.612;2022-11-15T03:12:13;2.60;;;1.50;;
42094;SDS011;27753;55.724;37.612;2022-11-15T03:15:14;5.78;;;1.67;;
42094;SDS011;27753;55.724;37.612;2022-11-15T03:17:48;2.83;;;1.00;;
42094;SDS011;27753;55.724;37.612;2022-11-15T03:20:36;5.90;;;1.50;;
42094;SDS011;27753;55.724;37.612;2022-11-15T03:23:07;3.58;;;1.30;;
42094;SDS011;27753;55.724;37.612;2022-11-15T03:25:36;3.13;;;1.15;;
42094;SDS011;27753;55.724;37.612;2022-11-15T03:28:08;2.30;;;1.50;;
42094;SDS011;27753;55.724;37.612;2022-11-15T03:30:37;3.83;;;1.35;;
42094;SDS011;27753;55.724;37.612;2022-11-15T03:33:05;4.10;;;1.60;;
42094;SDS011;27753;55.724;37.612;2022-11-15T03:35:33;1.73;;;1.33;;
42094;SDS011;27753;55.724;37.612;2022-11-15T03:40:58;3.53;;;1.55;;
42094;SDS011;27753;55.724;37.612;2022-11-15T03:46:14;5.00;;;1.63;;
42094;SDS011;27753;55.724;37.612;2022-11-15T03:48:49;5.97;;;1.73;;
42094;SDS011;27753;55.724;37.612;2022-11-15T03:51:18;2.42;;;1.38;;
42094;SDS011;27753;55.724;37.612;2022-11-15T03:53:48;9.07;;;1.50;;
42094;SDS011;27753;55.724;37.612;2022-11-15T03:56:13;3.35;;;1.50;;
42094;SDS011;27753;55.724;37.612;2022-11-15T03:58:39;7.60;;;1.52;;
42094;SDS011;27753;55.724;37.612;2022-11-15T04:01:05;5.10;;;1.70;;
42094;SDS011;27753;55.724;37.612;2022-11-15T04:03:31;2.63;;;1.65;;
42094;SDS011;27753;55.724;37.612;2022-11-15T04:05:57;5.93;;;1.40;;
42094;SDS011;27753;55.724;37.612;2022-11-15T04:08:22;4.43;;;1.63;;
42094;SDS011;27753;55.724;37.612;2022-11-15T04:10:49;6.07;;;1.67;;
42094;SDS011;27753;55.724;37.612;2022-11-15T04:13:14;12.27;;;1.60;;
42094;SDS011;27753;55.724;37.612;2022-11-15T04:15:41;2.55;;;1.25;;
42094;SDS011;27753;55.724;37.612;2022-11-15T04:18:06;3.78;;;1.13;;
42094;SDS011;27753;55.724;37.612;2022-11-15T04:20:32;6.97;;;1.70;;
42094;SDS011;27753;55.724;37.612;2022-11-15T04:23:18;3.97;;;1.73;;
42094;SDS011;27753;55.724;37.612;2022-11-15T04:26:10;5.38;;;1.50;;
42094;SDS011;27753;55.724;37.612;2022-11-15T04:28:38;7.00;;;1.83;;
42094;SDS011;27753;55.724;37.612;2022-11-15T04:31:24;4.75;;;1.73;;
42094;SDS011;27753;55.724;37.612;2022-11-15T04:33:50;4.18;;;1.58;;
42094;SDS011;27753;55.724;37.612;2022-11-15T04:36:16;5.78;;;1.65;;
42094;SDS011;27753;55.724;37.612;2022-11-15T04:39:00;5.00;;;2.38;;
42094;SDS011;27753;55.724;37.612;2022-11-15T04:41:26;6.30;;;1.92;;
42094;SDS011;27753;55.724;37.612;2022-11-15T04:43:52;5.95;;;1.95;;
42094;SDS011;27753;55.724;37.612;2022-11-15T04:46:17;4.35;;;1.60;;
42094;SDS011;27753;55.724;37.612;2022-11-15T04:48:43;3.08;;;1.77;;
42094;SDS011;27753;55.724;37.612;2022-11-15T04:51:09;4.90;;;1.85;;
42094;SDS011;27753;55.724;37.612;2022-11-15T04:53:35;5.55;;;1.65;;
42094;SDS011;27753;55.724;37.612;2022-11-15T04:56:01;5.25;;;1.77;;
42094;SDS011;27753;55.724;37.612;2022-11-15T04:58:26;6.18;;;2.00;;
42094;SDS011;27753;55.724;37.612;2022-11-15T05:00:52;4.10;;;1.83;;
42094;SDS011;27753;55.724;37.612;2022-11-15T05:03:18;3.00;;;1.75;;
42094;SDS011;27753;55.724;37.612;2022-11-15T05:06:02;5.15;;;2.13;;
42094;SDS011;27753;55.724;37.612;2022-11-15T05:08:28;3.63;;;1.48;;
42094;SDS011;27753;55.724;37.612;2022-11-15T05:10:54;8.43;;;1.60;;
42094;SDS011;27753;55.724;37.612;2022-11-15T05:13:20;14.77;;;2.15;;
42094;SDS011;27753;55.724;37.612;2022-11-15T05:15:46;6.37;;;2.40;;
42094;SDS011;27753;55.724;37.612;2022-11-15T05:18:12;5.43;;;1.77;;
42094;SDS011;27753;55.724;37.612;2022-11-15T05:20:38;7.47;;;2.42;;
42094;SDS011;27753;55.724;37.612;2022-11-15T05:23:04;3.72;;;1.60;;
42094;SDS011;27753;55.724;37.612;2022-11-15T05:25:30;6.97;;;2.45;;
42094;SDS011;27753;55.724;37.612;2022-11-15T05:27:56;11.30;;;2.72;;
42094;SDS011;27753;55.724;37.612;2022-11-15T05:30:22;8.93;;;1.80;;
42094;SDS011;27753;55.724;37.612;2022-11-15T05:32:48;7.60;;;2.30;;
42094;SDS011;27753;55.724;37.612;2022-11-15T05:35:37;6.72;;;2.35;;
42094;SDS011;27753;55.724;37.612;2022-11-15T05:38:07;5.97;;;1.83;;
42094;SDS011;27753;55.724;37.612;2022-11-15T05:40:33;4.97;;;1.90;;
42094;SDS011;27753;55.724;37.612;2022-11-15T05:43:00;10.55;;;1.70;;
42094;SDS011;27753;55.724;37.612;2022-11-15T05:47:54;6.07;;;1.92;;
42094;SDS011;27753;55.724;37.612;2022-11-15T05:50:22;7.90;;;2.13;;
42094;SDS011;27753;55.724;37.612;2022-11-15T05:52:49;6.78;;;2.13;;
42094;SDS011;27753;55.724;37.612;2022-11-15T05:55:15;6.53;;;2.72;;
42094;SDS011;27753;55.724;37.612;2022-11-15T05:57:41;9.02;;;2.70;;
42094;SDS011;27753;55.724;37.612;2022-11-15T06:00:07;5.88;;;1.90;;
42094;SDS011;27753;55.724;37.612;2022-11-15T06:02:34;5.63;;;1.95;;
42094;SDS011;27753;55.724;37.612;2022-11-15T06:05:03;4.53;;;2.08;;
42094;SDS011;27753;55.724;37.612;2022-11-15T06:07:29;6.00;;;1.92;;
42094;SDS011;27753;55.724;37.612;2022-11-15T06:09:55;5.00;;;1.98;;
42094;SDS011;27753;55.724;37.612;2022-11-15T06:12:21;15.15;;;2.45;;
42094;SDS011;27753;55.724;37.612;2022-11-15T06:14:47;11.20;;;2.75;;
42094;SDS011;27753;55.724;37.612;2022-11-15T06:17:13;8.85;;;2.67;;
42094;SDS011;27753;55.724;37.612;2022-11-15T06:19:39;9.65;;;2.30;;
42094;SDS011;27753;55.724;37.612;2022-11-15T06:22:04;7.25;;;2.25;;
42094;SDS011;27753;55.724;37.612;2022-11-15T06:24:30;10.88;;;3.00;;
42094;SDS011;27753;55.724;37.612;2022-11-15T06:26:56;12.10;;;4.05;;
42094;SDS011;27753;55.724;37.612;2022-11-15T06:29:22;6.90;;;3.15;;
42094;SDS011;27753;55.724;37.612;2022-11-15T06:31:48;3.22;;;1.98;;
42094;SDS011;27753;55.724;37.612;2022-11-15T06:34:14;6.20;;;2.60;;
42094;SDS011;27753;55.724;37.612;2022-11-15T06:36:40;7.45;;;2.30;;
42094;SDS011;27753;55.724;37.612;2022-11-15T06:39:06;9.85;;;3.22;;
42094;SDS011;27753;55.724;37.612;2022-11-15T06:41:35;5.20;;;2.47;;
42094;SDS011;27753;55.724;37.612;2022-11-15T06:44:01;4.78;;;2.40;;
42094;SDS011;27753;55.724;37.612;2022-11-15T06:46:27;9.10;;;2.80;;
42094;SDS011;27753;55.724;37.612;2022-11-15T06:48:53;7.05;;;2.33;;
42094;SDS011;27753;55.724;37.612;2022-11-15T06:51:19;6.43;;;1.95;;
42094;SDS011;27753;55.724;37.612;2022-11-15T06:53:45;7.90;;;2.30;;
42094;SDS011;27753;55.724;37.612;2022-11-15T06:56:11;9.80;;;3.33;;
42094;SDS011;27753;55.724;37.612;2022-11-15T06:58:37;5.97;;;2.47;;
42094;SDS011;27753;55.724;37.612;2022-11-15T07:01:07;6.38;;;3.28;;
42094;SDS011;27753;55.724;37.612;2022-11-15T07:03:36;13.60;;;2.45;;
42094;SDS011;27753;55.724;37.612;2022-11-15T07:06:06;7.45;;;2.30;;
42094;SDS011;27753;55.724;37.612;2022-11-15T07:08:33;7.93;;;2.83;;
42094;SDS011;27753;55.724;37.612;2022-11-15T07:11:01;6.70;;;2.58;;
42094;SDS011;27753;55.724;37.612;2022-11-15T07:13:29;8.98;;;2.78;;
42094;SDS011;27753;55.724;37.612;2022-11-15T07:16:05;7.90;;;2.42;;
42094;SDS011;27753;55.724;37.612;2022-11-15T07:18:34;7.32;;;3.00;;
42094;SDS011;27753;55.724;37.612;2022-11-15T07:21:03;5.80;;;2.58;;
42094;SDS011;27753;55.724;37.612;2022-11-15T07:23:30;5.78;;;2.55;;
42094;SDS011;27753;55.724;37.612;2022-11-15T07:25:57;7.00;;;3.83;;
42094;SDS011;27753;55.724;37.612;2022-11-15T07:28:25;7.90;;;3.15;;
42094;SDS011;27753;55.724;37.612;2022-11-15T07:30:51;7.03;;;2.30;;
42094;SDS011;27753;55.724;37.612;2022-11-15T07:33:17;10.10;;;2.78;;
42094;SDS011;27753;55.724;37.612;2022-11-15T07:35:43;13.00;;;3.58;;
42094;SDS011;27753;55.724;37.612;2022-11-15T07:38:13;16.17;;;3.70;;
42094;SDS011;27753;55.724;37.612;2022-11-15T07:40:40;6.03;;;3.13;;
42094;SDS011;27753;55.724;37.612;2022-11-15T07:43:06;8.70;;;3.13;;
42094;SDS011;27753;55.724;37.612;2022-11-15T07:45:33;8.00;;;3.17;;
42094;SDS011;27753;55.724;37.612;2022-11-15T07:48:04;10.50;;;2.63;;
42094;SDS011;27753;55.724;37.612;2022-11-15T07:50:31;7.68;;;2.90;;
42094;SDS011;27753;55.724;37.612;2022-11-15T07:52:57;11.55;;;3.22;;
42094;SDS011;27753;55.724;37.612;2022-11-15T07:55:24;8.15;;;2.72;;
42094;SDS011;27753;55.724;37.612;2022-11-15T07:57:52;12.02;;;3.50;;
42094;SDS011;27753;55.724;37.612;2022-11-15T08:00:18;15.35;;;3.30;;
42094;SDS011;27753;55.724;37.612;2022-11-15T08:02:44;9.75;;;3.38;;
42094;SDS011;27753;55.724;37.612;2022-11-15T08:05:10;10.88;;;3.42;;
42094;SDS011;27753;55.724;37.612;2022-11-15T08:07:36;16.23;;;2.88;;
42094;SDS011;27753;55.724;37.612;2022-11-15T08:10:03;9.52;;;3.05;;
42094;SDS011;27753;55.724;37.612;2022-11-15T08:12:31;10.40;;;2.85;;
42094;SDS011;27753;55.724;37.612;2022-11-15T08:14:57;7.10;;;3.22;;
42094;SDS011;27753;55.724;37.612;2022-11-15T08:17:23;5.03;;;2.95;;
42094;SDS011;27753;55.724;37.612;2022-11-15T08:19:49;14.60;;;3.40;;
42094;SDS011;27753;55.724;37.612;2022-11-15T08:22:15;7.93;;;2.83;;
42094;SDS011;27753;55.724;37.612;2022-11-15T08:24:41;10.40;;;2.50;;
42094;SDS011;27753;55.724;37.612;2022-11-15T08:27:08;5.30;;;2.33;;
42094;SDS011;27753;55.724;37.612;2022-11-15T08:29:42;7.97;;;2.97;;
42094;SDS011;27753;55.724;37.612;2022-11-15T08:32:09;7.30;;;3.25;;
42094;SDS011;27753;55.724;37.612;2022-11-15T08:34:36;8.70;;;5.03;;
42094;SDS011;27753;55.724;37.612;2022-11-15T08:37:03;7.65;;;3.38;;
42094;SDS011;27753;55.724;37.612;2022-11-15T08:39:29;10.85;;;2.97;;
42094;SDS011;27753;55.724;37.612;2022-11-15T08:41:55;7.28;;;2.75;;
42094;SDS011;27753;55.724;37.612;2022-11-15T08:44:21;8.40;;;2.95;;
42094;SDS011;27753;55.724;37.612;2022-11-15T08:46:47;8.05;;;2.70;;
42094;SDS011;27753;55.724;37.612;2022-11-15T08:49:12;5.10;;;3.20;;
42094;SDS011;27753;55.724;37.612;2022-11-15T08:51:41;6.60;;;2.83;;
42094;SDS011;27753;55.724;37.612;2022-11-15T08:54:07;9.70;;;2.92;;
42094;SDS011;27753;55.724;37.612;2022-11-15T08:56:33;7.13;;;3.92;;
42094;SDS011;27753;55.724;37.612;2022-11-15T08:58:59;8.48;;;3.55;;
42094;SDS011;27753;55.724;37.612;2022-11-15T09:01:25;8.18;;;3.35;;
42094;SDS011;27753;55.724;37.612;2022-11-15T09:03:51;13.48;;;3.78;;
42094;SDS011;27753;55.724;37.612;2022-11-15T09:06:17;13.85;;;5.00;;
42094;SDS011;27753;55.724;37.612;2022-11-15T09:08:43;11.50;;;4.13;;
42094;SDS011;27753;55.724;37.612;2022-11-15T09:11:09;13.35;;;3.88;;
42094;SDS011;27753;55.724;37.612;2022-11-15T09:13:35;8.63;;;3.55;;
42094;SDS011;27753;55.724;37.612;2022-11-15T09:16:02;12.77;;;5.00;;
42094;SDS011;27753;55.724;37.612;2022-11-15T09:18:29;9.30;;;3.73;;
42094;SDS011;27753;55.724;37.612;2022-11-15T09:20:58;6.35;;;3.42;;
42094;SDS011;27753;55.724;37.612;2022-11-15T09:23:25;6.85;;;3.75;;
42094;SDS011;27753;55.724;37.612;2022-11-15T09:25:51;9.50;;;3.90;;
42094;SDS011;27753;55.724;37.612;2022-11-15T09:28:18;7.70;;;3.35;;
42094;SDS011;27753;55.724;37.612;2022-11-15T09:30:44;10.88;;;3.72;;
42094;SDS011;27753;55.724;37.612;2022-11-15T09:33:10;7.13;;;3.30;;
42094;SDS011;27753;55.724;37.612;2022-11-15T09:35:37;5.90;;;2.50;;
42094;SDS011;27753;55.724;37.612;2022-11-15T09:38:03;9.63;;;2.38;;
42094;SDS011;27753;55.724;37.612;2022-11-15T09:40:32;15.82;;;3.78;;
42094;SDS011;27753;55.724;37.612;2022-11-15T09:51:22;4.60;;;2.10;;
42094;SDS011;27753;55.724;37.612;2022-11-15T09:57:15;10.07;;;3.58;;
42094;SDS011;27753;55.724;37.612;2022-11-15T10:00:20;6.45;;;3.28;;
42094;SDS011;27753;55.724;37.612;2022-11-15T10:05:44;16.15;;;3.47;;
42094;SDS011;27753;55.724;37.612;2022-11-15T10:10:39;4.65;;;2.22;;
42094;SDS011;27753;55.724;37.612;2022-11-15T10:13:40;5.00;;;3.47;;
42094;SDS011;27753;55.724;37.612;2022-11-15T10:22:08;9.77;;;2.65;;
42094;SDS011;27753;55.724;37.612;2022-11-15T10:24:49;8.68;;;3.03;;
42094;SDS011;27753;55.724;37.612;2022-11-15T10:27:18;9.52;;;3.47;;
42094;SDS011;27753;55.724;37.612;2022-11-15T10:29:46;8.32;;;2.72;;
42094;SDS011;27753;55.724;37.612;2022-11-15T10:32:14;15.63;;;3.70;;
42094;SDS011;27753;55.724;37.612;2022-11-15T10:34:42;9.88;;;4.32;;
42094;SDS011;27753;55.724;37.612;2022-11-15T10:37:08;11.57;;;4.95;;
42094;SDS011;27753;55.724;37.612;2022-11-15T10:39:34;5.90;;;2.20;;
42094;SDS011;27753;55.724;37.612;2022-11-15T10:44:52;9.05;;;4.05;;
42094;SDS011;27753;55.724;37.612;2022-11-15T10:47:23;9.87;;;3.27;;
42094;SDS011;27753;55.724;37.612;2022-11-15T10:49:55;10.70;;;3.60;;
42094;SDS011;27753;55.724;37.612;2022-11-15T10:52:25;7.03;;;3.08;;
42094;SDS011;27753;55.724;37.612;2022-11-15T10:54:58;5.78;;;3.45;;
42094;SDS011;27753;55.724;37.612;2022-11-15T10:57:25;7.10;;;3.17;;
42094;SDS011;27753;55.724;37.612;2022-11-15T10:59:57;9.82;;;2.83;;
42094;SDS011;27753;55.724;37.612;2022-11-15T11:02:58;6.43;;;2.67;;
42094;SDS011;27753;55.724;37.612;2022-11-15T11:05:36;6.28;;;3.13;;
42094;SDS011;27753;55.724;37.612;2022-11-15T11:08:09;13.15;;;3.40;;
42094;SDS011;27753;55.724;37.612;2022-11-15T11:13:26;7.72;;;2.63;;
42094;SDS011;27753;55.724;37.612;2022-11-15T11:24:13;10.32;;;2.75;;
42094;SDS011;27753;55.724;37.612;2022-11-15T11:27:06;7.45;;;3.22;;
42094;SDS011;27753;55.724;37.612;2022-11-15T11:30:03;8.18;;;4.85;;
42094;SDS011;27753;55.724;37.612;2022-11-15T11:32:42;6.10;;;3.38;;
42094;SDS011;27753;55.724;37.612;2022-11-15T11:35:12;15.80;;;4.60;;
42094;SDS011;27753;55.724;37.612;2022-11-15T11:37:52;5.90;;;3.20;;
42094;SDS011;27753;55.724;37.612;2022-11-15T11:43:13;9.02;;;3.58;;
42094;SDS011;27753;55.724;37.612;2022-11-15T11:48:58;11.10;;;4.00;;
42094;SDS011;27753;55.724;37.612;2022-11-15T11:51:34;9.63;;;5.55;;
42094;SDS011;27753;55.724;37.612;2022-11-15T11:54:06;12.20;;;6.05;;
42094;SDS011;27753;55.724;37.612;2022-11-15T11:56:50;11.98;;;4.65;;
42094;SDS011;27753;55.724;37.612;2022-11-15T11:59:20;8.43;;;2.97;;
42094;SDS011;27753;55.724;37.612;2022-11-15T12:02:23;11.85;;;4.15;;
42094;SDS011;27753;55.724;37.612;2022-11-15T12:04:56;11.32;;;4.80;;
42094;SDS011;27753;55.724;37.612;2022-11-15T12:07:32;7.43;;;2.58;;
42094;SDS011;27753;55.724;37.612;2022-11-15T12:12:56;9.07;;;3.67;;
42094;SDS011;27753;55.724;37.612;2022-11-15T12:15:39;8.50;;;3.65;;
42094;SDS011;27753;55.724;37.612;2022-11-15T12:18:07;4.35;;;2.83;;
42094;SDS011;27753;55.724;37.612;2022-11-15T12:20:39;6.53;;;3.22;;
42094;SDS011;27753;55.724;37.612;2022-11-15T12:23:10;7.80;;;3.15;;
42094;SDS011;27753;55.724;37.612;2022-11-15T12:28:40;7.80;;;4.38;;
42094;SDS011;27753;55.724;37.612;2022-11-15T12:31:58;14.90;;;3.92;;
42094;SDS011;27753;55.724;37.612;2022-11-15T12:36:44;9.07;;;2.90;;
42094;SDS011;27753;55.724;37.612;2022-11-15T12:39:11;10.68;;;3.22;;
42094;SDS011;27753;55.724;37.612;2022-11-15T12:41:39;8.93;;;5.47;;
42094;SDS011;27753;55.724;37.612;2022-11-15T12:44:10;7.10;;;2.72;;
42094;SDS011;27753;55.724;37.612;2022-11-15T12:49:10;6.47;;;2.20;;
42094;SDS011;27753;55.724;37.612;2022-11-15T12:59:47;18.27;;;3.28;;
42094;SDS011;27753;55.724;37.612;2022-11-15T13:04:51;6.82;;;3.42;;
42094;SDS011;27753;55.724;37.612;2022-11-15T13:10:27;6.35;;;3.60;;
42094;SDS011;27753;55.724;37.612;2022-11-15T13:13:07;14.50;;;4.25;;
42094;SDS011;27753;55.724;37.612;2022-11-15T13:20:51;16.67;;;5.85;;
42094;SDS011;27753;55.724;37.612;2022-11-15T13:23:17;9.35;;;4.90;;
42094;SDS011;27753;55.724;37.612;2022-11-15T13:30:58;12.45;;;4.82;;
42094;SDS011;27753;55.724;37.612;2022-11-15T13:33:28;13.00;;;5.22;;
42094;SDS011;27753;55.724;37.612;2022-11-15T13:36:13;18.25;;;7.05;;
42094;SDS011;27753;55.724;37.612;2022-11-15T13:38:44;14.82;;;7.55;;
42094;SDS011;27753;55.724;37.612;2022-11-15T13:41:11;16.83;;;5.45;;
42094;SDS011;27753;55.724;37.612;2022-11-15T13:43:50;13.88;;;5.07;;
42094;SDS011;27753;55.724;37.612;2022-11-15T13:48:43;9.98;;;6.00;;
42094;SDS011;27753;55.724;37.612;2022-11-15T13:51:21;12.13;;;5.60;;
42094;SDS011;27753;55.724;37.612;2022-11-15T13:56:52;19.80;;;6.88;;
42094;SDS011;27753;55.724;37.612;2022-11-15T13:59:24;22.10;;;6.80;;
42094;SDS011;27753;55.724;37.612;2022-11-15T14:01:53;19.95;;;7.70;;
42094;SDS011;27753;55.724;37.612;2022-11-15T14:04:22;17.40;;;5.80;;
42094;SDS011;27753;55.724;37.612;2022-11-15T14:06:54;26.60;;;8.88;;
42094;SDS011;27753;55.724;37.612;2022-11-15T14:09:32;9.07;;;5.43;;
42094;SDS011;27753;55.724;37.612;2022-11-15T14:12:01;12.43;;;5.90;;
42094;SDS011;27753;55.724;37.612;2022-11-15T14:15:39;12.30;;;5.35;;
42094;SDS011;27753;55.724;37.612;2022-11-15T14:17:59;8.98;;;5.50;;
42094;SDS011;27753;55.724;37.612;2022-11-15T14:23:02;10.02;;;6.55;;
42094;SDS011;27753;55.724;37.612;2022-11-15T14:25:31;10.23;;;5.43;;
42094;SDS011;27753;55.724;37.612;2022-11-15T14:30:35;5.63;;;3.70;;
42094;SDS011;27753;55.724;37.612;2022-11-15T14:33:01;10.18;;;4.80;;
42094;SDS011;27753;55.724;37.612;2022-11-15T14:35:42;12.52;;;5.50;;
42094;SDS011;27753;55.724;37.612;2022-11-15T14:38:08;12.02;;;5.82;;
42094;SDS011;27753;55.724;37.612;2022-11-15T14:40:34;12.77;;;6.57;;
42094;SDS011;27753;55.724;37.612;2022-11-15T14:43:10;10.90;;;5.90;;
42094;SDS011;27753;55.724;37.612;2022-11-15T14:45:36;6.72;;;4.63;;
42094;SDS011;27753;55.724;37.612;2022-11-15T14:48:03;12.52;;;6.85;;
42094;SDS011;27753;55.724;37.612;2022-11-15T14:50:29;12.07;;;5.88;;
42094;SDS011;27753;55.724;37.612;2022-11-15T14:52:56;17.02;;;9.43;;
42094;SDS011;27753;55.724;37.612;2022-11-15T14:58:04;12.00;;;6.00;;
42094;SDS011;27753;55.724;37.612;2022-11-15T15:00:33;11.63;;;6.32;;
42094;SDS011;27753;55.724;37.612;2022-11-15T15:03:03;12.90;;;6.45;;
42094;SDS011;27753;55.724;37.612;2022-11-15T15:05:31;12.82;;;5.50;;
42094;SDS011;27753;55.724;37.612;2022-11-15T15:07:59;9.52;;;4.93;;
42094;SDS011;27753;55.724;37.612;2022-11-15T15:10:27;13.90;;;6.53;;
42094;SDS011;27753;55.724;37.612;2022-11-15T15:12:57;11.13;;;6.72;;
42094;SDS011;27753;55.724;37.612;2022-11-15T15:15:29;12.00;;;7.28;;
42094;SDS011;27753;55.724;37.612;2022-11-15T15:18:01;11.23;;;7.00;;
42094;SDS011;27753;55.724;37.612;2022-11-15T15:20:27;17.40;;;7.68;;
42094;SDS011;27753;55.724;37.612;2022-11-15T15:22:54;15.07;;;8.00;;
42094;SDS011;27753;55.724;37.612;2022-11-15T15:25:21;11.02;;;6.50;;
42094;SDS011;27753;55.724;37.612;2022-11-15T15:27:51;8.85;;;5.05;;
42094;SDS011;27753;55.724;37.612;2022-11-15T15:30:17;8.60;;;5.78;;
42094;SDS011;27753;55.724;37.612;2022-11-15T15:32:43;13.15;;;5.25;;
42094;SDS011;27753;55.724;37.612;2022-11-15T15:35:13;8.30;;;5.55;;
42094;SDS011;27753;55.724;37.612;2022-11-15T15:37:44;10.63;;;6.60;;
42094;SDS011;27753;55.724;37.612;2022-11-15T15:40:16;13.20;;;6.75;;
42094;SDS011;27753;55.724;37.612;2022-11-15T15:42:47;18.30;;;7.10;;
42094;SDS011;27753;55.724;37.612;2022-11-15T15:45:14;17.00;;;6.32;;
42094;SDS011;27753;55.724;37.612;2022-11-15T15:47:40;12.98;;;5.22;;
42094;SDS011;27753;55.724;37.612;2022-11-15T15:52:45;8.50;;;5.07;;
42094;SDS011;27753;55.724;37.612;2022-11-15T15:55:21;9.55;;;5.25;;
42094;SDS011;27753;55.724;37.612;2022-11-15T15:57:47;10.80;;;5.53;;
42094;SDS011;27753;55.724;37.612;2022-11-15T16:00:14;8.90;;;5.47;;
42094;SDS011;27753;55.724;37.612;2022-11-15T16:02:41;10.15;;;5.60;;
42094;SDS011;27753;55.724;37.612;2022-11-15T16:05:07;10.45;;;5.80;;
42094;SDS011;27753;55.724;37.612;2022-11-15T16:07:34;14.05;;;6.05;;
42094;SDS011;27753;55.724;37.612;2022-11-15T16:10:00;13.65;;;5.35;;
42094;SDS011;27753;55.724;37.612;2022-11-15T16:12:34;8.43;;;6.75;;
42094;SDS011;27753;55.724;37.612;2022-11-15T16:15:00;11.02;;;5.90;;
42094;SDS011;27753;55.724;37.612;2022-11-15T16:17:33;10.05;;;6.32;;
42094;SDS011;27753;55.724;37.612;2022-11-15T16:20:04;11.75;;;5.95;;
42094;SDS011;27753;55.724;37.612;2022-11-15T16:22:30;8.90;;;5.88;;
42094;SDS011;27753;55.724;37.612;2022-11-15T16:24:58;13.00;;;5.60;;
42094;SDS011;27753;55.724;37.612;2022-11-15T16:27:24;7.47;;;4.47;;
42094;SDS011;27753;55.724;37.612;2022-11-15T16:29:53;9.00;;;4.72;;
42094;SDS011;27753;55.724;37.612;2022-11-15T16:32:23;10.10;;;4.78;;
42094;SDS011;27753;55.724;37.612;2022-11-15T16:34:49;6.53;;;3.75;;
42094;SDS011;27753;55.724;37.612;2022-11-15T16:37:22;11.07;;;5.30;;
42094;SDS011;27753;55.724;37.612;2022-11-15T16:39:48;7.57;;;3.72;;
42094;SDS011;27753;55.724;37.612;2022-11-15T16:42:14;10.60;;;4.88;;
42094;SDS011;27753;55.724;37.612;2022-11-15T16:44:41;6.43;;;4.55;;
42094;SDS011;27753;55.724;37.612;2022-11-15T16:47:19;6.85;;;3.58;;
42094;SDS011;27753;55.724;37.612;2022-11-15T16:49:45;12.70;;;7.55;;
42094;SDS011;27753;55.724;37.612;2022-11-15T16:52:14;12.30;;;8.07;;
42094;SDS011;27753;55.724;37.612;2022-11-15T16:54:40;15.45;;;10.43;;
42094;SDS011;27753;55.724;37.612;2022-11-15T16:57:22;18.83;;;8.70;;